sensor_id;sensor_type;location;lat;lon;timestamp;pressure;altitude;pressure_sealevel;temperature;humidity
43480;BME280;29067;35.492;-97.520;2023-01-30T00:00:57;98053.16;;;-9.69;57.01
43480;BME280;29067;35.492;-97.520;2023-01-30T00:03:26;98065.32;;;-11.77;59.74
43480;BME280;29067;35.492;-97.520;2023-01-30T00:05:54;98053.05;;;-10.39;57.90
43480;BME280;29067;35.492;-97.520;2023-01-30T00:08:22;98051.43;;;-10.56;57.98
43480;BME280;29067;35.492;-97.520;2023-01-30T00:10:50;98055.34;;;-11.12;59.89
43480;BME280;29067;35.492;-97.520;2023-01-30T00:13:19;98047.95;;;-10.31;58.19
43480;BME280;29067;35.492;-97.520;2023-01-30T00:15:48;98057.47;;;-9.95;56.30
43480;BME280;29067;35.492;-97.520;2023-01-30T00:18:16;98062.80;;;-10.95;58.05
43480;BME280;29067;35.492;-97.520;2023-01-30T00:20:44;98057.97;;;-10.36;59.11
43480;BME280;29067;35.492;-97.520;2023-01-30T00:23:12;98063.44;;;-11.13;58.30
43480;BME280;29067;35.492;-97.520;2023-01-30T00:25:45;98062.80;;;-10.47;58.52
43480;BME280;29067;35.492;-97.520;2023-01-30T00:28:13;98065.61;;;-10.32;57.58
43480;BME280;29067;35.492;-97.520;2023-01-30T00:30:41;98072.03;;;-11.19;58.22
43480;BME280;29067;35.492;-97.520;2023-01-30T00:33:10;98074.84;;;-10.10;58.57
43480;BME280;29067;35.492;-97.520;2023-01-30T00:35:42;98082.63;;;-10.15;58.12
43480;BME280;29067;35.492;-97.520;2023-01-30T00:38:17;98085.28;;;-10.29;57.96
43480;BME280;29067;35.492;-97.520;2023-01-30T00:40:47;98093.39;;;-11.20;59.48
43480;BME280;29067;35.492;-97.520;2023-01-30T00:43:16;98087.61;;;-10.32;59.28
43480;BME280;29067;35.492;-97.520;2023-01-30T00:45:45;98100.62;;;-11.61;61.68
43480;BME280;29067;35.492;-97.520;2023-01-30T00:48:14;98106.26;;;-11.70;61.87
43480;BME280;29067;35.492;-97.520;2023-01-30T00:50:43;98102.25;;;-11.73;63.62
43480;BME280;29067;35.492;-97.520;2023-01-30T00:53:12;98096.36;;;-11.47;62.52
43480;BME280;29067;35.492;-97.520;2023-01-30T00:55:41;98098.53;;;-9.86;61.48
43480;BME280;29067;35.492;-97.520;2023-01-30T00:58:09;98100.73;;;-10.83;61.66
43480;BME280;29067;35.492;-97.520;2023-01-30T01:00:37;98109.38;;;-10.63;61.59
43480;BME280;29067;35.492;-97.520;2023-01-30T01:03:05;98111.91;;;-10.66;60.98
43480;BME280;29067;35.492;-97.520;2023-01-30T01:05:34;98114.14;;;-11.12;62.80
43480;BME280;29067;35.492;-97.520;2023-01-30T01:08:13;98112.15;;;-11.20;64.22
43480;BME280;29067;35.492;-97.520;2023-01-30T01:10:41;98120.42;;;-11.25;63.81
43480;BME280;29067;35.492;-97.520;2023-01-30T01:13:10;98125.63;;;-10.68;62.69
43480;BME280;29067;35.492;-97.520;2023-01-30T01:15:38;98130.55;;;-11.58;63.37
43480;BME280;29067;35.492;-97.520;2023-01-30T01:18:12;98135.80;;;-10.90;62.74
43480;BME280;29067;35.492;-97.520;2023-01-30T01:20:40;98138.44;;;-10.07;61.81
43480;BME280;29067;35.492;-97.520;2023-01-30T01:23:09;98146.01;;;-11.36;63.28
43480;BME280;29067;35.492;-97.520;2023-01-30T01:25:37;98145.07;;;-12.08;65.70
43480;BME280;29067;35.492;-97.520;2023-01-30T01:28:06;98138.48;;;-10.78;64.98
43480;BME280;29067;35.492;-97.520;2023-01-30T01:30:34;98144.91;;;-12.53;67.28
43480;BME280;29067;35.492;-97.520;2023-01-30T01:33:03;98136.79;;;-9.63;64.17
43480;BME280;29067;35.492;-97.520;2023-01-30T01:35:41;98136.14;;;-10.91;66.03
43480;BME280;29067;35.492;-97.520;2023-01-30T01:38:09;98140.87;;;-10.96;65.38
43480;BME280;29067;35.492;-97.520;2023-01-30T01:40:44;98146.32;;;-10.72;64.00
43480;BME280;29067;35.492;-97.520;2023-01-30T01:43:17;98141.90;;;-10.69;63.60
43480;BME280;29067;35.492;-97.520;2023-01-30T01:45:49;98143.61;;;-10.58;63.29
43480;BME280;29067;35.492;-97.520;2023-01-30T01:48:24;98147.71;;;-11.31;64.78
43480;BME280;29067;35.492;-97.520;2023-01-30T01:50:56;98166.69;;;-10.46;64.39
43480;BME280;29067;35.492;-97.520;2023-01-30T01:53:28;98174.29;;;-10.92;64.04
43480;BME280;29067;35.492;-97.520;2023-01-30T01:55:58;98168.57;;;-10.02;62.51
43480;BME280;29067;35.492;-97.520;2023-01-30T01:58:33;98174.95;;;-10.59;63.12
43480;BME280;29067;35.492;-97.520;2023-01-30T02:01:03;98173.69;;;-11.13;65.69
43480;BME280;29067;35.492;-97.520;2023-01-30T02:03:36;98181.30;;;-12.06;67.65
43480;BME280;29067;35.492;-97.520;2023-01-30T02:06:08;98174.10;;;-10.54;63.19
43480;BME280;29067;35.492;-97.520;2023-01-30T02:08:40;98174.30;;;-10.90;64.94
43480;BME280;29067;35.492;-97.520;2023-01-30T02:11:13;98177.95;;;-10.50;63.16
43480;BME280;29067;35.492;-97.520;2023-01-30T02:13:44;98177.34;;;-11.16;63.79
43480;BME280;29067;35.492;-97.520;2023-01-30T02:16:13;98176.87;;;-10.97;64.01
43480;BME280;29067;35.492;-97.520;2023-01-30T02:18:43;98177.94;;;-11.44;63.05
43480;BME280;29067;35.492;-97.520;2023-01-30T02:22:35;98181.53;;;-10.86;63.21
43480;BME280;29067;35.492;-97.520;2023-01-30T02:25:22;98172.79;;;-11.80;65.07
43480;BME280;29067;35.492;-97.520;2023-01-30T02:29:18;98174.13;;;-11.31;64.94
43480;BME280;29067;35.492;-97.520;2023-01-30T02:31:51;98172.97;;;-11.09;63.55
43480;BME280;29067;35.492;-97.520;2023-01-30T02:34:34;98165.33;;;-10.34;62.52
43480;BME280;29067;35.492;-97.520;2023-01-30T02:37:13;98169.52;;;-10.93;64.07
43480;BME280;29067;35.492;-97.520;2023-01-30T02:39:51;98166.71;;;-12.51;65.67
43480;BME280;29067;35.492;-97.520;2023-01-30T02:42:33;98173.19;;;-10.59;63.48
43480;BME280;29067;35.492;-97.520;2023-01-30T02:45:11;98186.84;;;-10.97;64.72
43480;BME280;29067;35.492;-97.520;2023-01-30T02:47:55;98194.87;;;-11.33;63.79
43480;BME280;29067;35.492;-97.520;2023-01-30T02:50:28;98195.91;;;-11.14;64.18
43480;BME280;29067;35.492;-97.520;2023-01-30T02:53:00;98195.27;;;-10.61;63.14
43480;BME280;29067;35.492;-97.520;2023-01-30T02:55:29;98197.88;;;-12.00;64.58
43480;BME280;29067;35.492;-97.520;2023-01-30T02:57:57;98205.48;;;-11.22;64.07
43480;BME280;29067;35.492;-97.520;2023-01-30T03:00:37;98202.74;;;-10.15;62.36
43480;BME280;29067;35.492;-97.520;2023-01-30T03:03:18;98202.39;;;-9.83;61.47
43480;BME280;29067;35.492;-97.520;2023-01-30T03:06:07;98207.12;;;-10.63;62.60
43480;BME280;29067;35.492;-97.520;2023-01-30T03:08:44;98208.85;;;-8.53;59.35
43480;BME280;29067;35.492;-97.520;2023-01-30T03:11:16;98210.26;;;-9.38;59.34
43480;BME280;29067;35.492;-97.520;2023-01-30T03:13:50;98214.10;;;-10.60;60.33
43480;BME280;29067;35.492;-97.520;2023-01-30T03:16:23;98226.21;;;-12.73;64.28
43480;BME280;29067;35.492;-97.520;2023-01-30T03:18:53;98228.43;;;-11.92;64.45
43480;BME280;29067;35.492;-97.520;2023-01-30T03:21:21;98232.42;;;-11.09;62.90
43480;BME280;29067;35.492;-97.520;2023-01-30T03:23:50;98233.35;;;-10.56;62.00
43480;BME280;29067;35.492;-97.520;2023-01-30T03:26:21;98228.45;;;-10.45;61.79
43480;BME280;29067;35.492;-97.520;2023-01-30T03:28:52;98212.42;;;-10.05;61.37
43480;BME280;29067;35.492;-97.520;2023-01-30T03:31:21;98215.79;;;-11.29;63.67
43480;BME280;29067;35.492;-97.520;2023-01-30T03:33:49;98215.53;;;-11.02;62.02
43480;BME280;29067;35.492;-97.520;2023-01-30T03:36:18;98216.13;;;-10.28;61.07
43480;BME280;29067;35.492;-97.520;2023-01-30T03:38:46;98218.47;;;-10.50;60.49
43480;BME280;29067;35.492;-97.520;2023-01-30T03:41:15;98227.78;;;-11.08;61.49
43480;BME280;29067;35.492;-97.520;2023-01-30T03:43:44;98224.26;;;-10.28;60.82
43480;BME280;29067;35.492;-97.520;2023-01-30T03:46:12;98226.02;;;-11.04;61.57
43480;BME280;29067;35.492;-97.520;2023-01-30T03:48:40;98234.38;;;-11.70;62.28
43480;BME280;29067;35.492;-97.520;2023-01-30T03:51:09;98230.15;;;-10.32;61.47
43480;BME280;29067;35.492;-97.520;2023-01-30T03:53:37;98229.49;;;-9.91;61.21
43480;BME280;29067;35.492;-97.520;2023-01-30T03:56:06;98225.12;;;-9.54;59.65
43480;BME280;29067;35.492;-97.520;2023-01-30T03:58:35;98233.44;;;-10.25;60.54
43480;BME280;29067;35.492;-97.520;2023-01-30T04:01:17;98235.83;;;-10.07;60.62
43480;BME280;29067;35.492;-97.520;2023-01-30T04:03:45;98237.04;;;-9.66;59.37
43480;BME280;29067;35.492;-97.520;2023-01-30T04:06:14;98239.21;;;-10.06;59.86
43480;BME280;29067;35.492;-97.520;2023-01-30T04:08:42;98241.26;;;-9.90;60.47
43480;BME280;29067;35.492;-97.520;2023-01-30T04:11:10;98244.51;;;-10.25;59.26
43480;BME280;29067;35.492;-97.520;2023-01-30T04:13:39;98244.73;;;-9.92;58.31
43480;BME280;29067;35.492;-97.520;2023-01-30T04:16:20;98243.64;;;-9.96;59.04
43480;BME280;29067;35.492;-97.520;2023-01-30T04:18:48;98248.56;;;-10.46;59.67
43480;BME280;29067;35.492;-97.520;2023-01-30T04:21:16;98257.05;;;-10.31;59.97
43480;BME280;29067;35.492;-97.520;2023-01-30T04:23:45;98253.11;;;-10.77;59.26
43480;BME280;29067;35.492;-97.520;2023-01-30T04:26:13;98249.94;;;-9.79;58.91
43480;BME280;29067;35.492;-97.520;2023-01-30T04:28:42;98248.82;;;-10.15;57.85
43480;BME280;29067;35.492;-97.520;2023-01-30T04:31:11;98254.41;;;-10.26;58.75
43480;BME280;29067;35.492;-97.520;2023-01-30T04:33:40;98247.05;;;-10.32;58.00
43480;BME280;29067;35.492;-97.520;2023-01-30T04:36:09;98249.73;;;-9.99;58.15
43480;BME280;29067;35.492;-97.520;2023-01-30T04:38:38;98249.31;;;-9.58;57.11
43480;BME280;29067;35.492;-97.520;2023-01-30T04:41:06;98240.72;;;-9.34;56.93
43480;BME280;29067;35.492;-97.520;2023-01-30T04:43:34;98239.00;;;-10.15;57.80
43480;BME280;29067;35.492;-97.520;2023-01-30T04:46:04;98248.55;;;-9.56;57.58
43480;BME280;29067;35.492;-97.520;2023-01-30T04:48:32;98244.98;;;-7.83;55.84
43480;BME280;29067;35.492;-97.520;2023-01-30T04:51:00;98256.72;;;-9.01;55.09
43480;BME280;29067;35.492;-97.520;2023-01-30T04:53:29;98247.92;;;-9.53;55.35
43480;BME280;29067;35.492;-97.520;2023-01-30T04:55:58;98260.69;;;-9.27;55.44
43480;BME280;29067;35.492;-97.520;2023-01-30T04:58:26;98251.89;;;-8.31;55.36
43480;BME280;29067;35.492;-97.520;2023-01-30T05:00:54;98262.11;;;-9.62;55.39
43480;BME280;29067;35.492;-97.520;2023-01-30T05:03:24;98261.38;;;-9.67;55.61
43480;BME280;29067;35.492;-97.520;2023-01-30T05:05:52;98267.90;;;-8.96;55.31
43480;BME280;29067;35.492;-97.520;2023-01-30T05:08:20;98274.82;;;-9.27;54.87
43480;BME280;29067;35.492;-97.520;2023-01-30T05:10:49;98276.99;;;-9.83;55.99
43480;BME280;29067;35.492;-97.520;2023-01-30T05:13:17;98289.17;;;-10.39;56.04
43480;BME280;29067;35.492;-97.520;2023-01-30T05:15:46;98292.08;;;-9.51;55.30
43480;BME280;29067;35.492;-97.520;2023-01-30T05:18:15;98291.89;;;-10.25;56.87
43480;BME280;29067;35.492;-97.520;2023-01-30T05:20:43;98288.06;;;-9.44;54.84
43480;BME280;29067;35.492;-97.520;2023-01-30T05:23:11;98291.44;;;-9.34;53.61
43480;BME280;29067;35.492;-97.520;2023-01-30T05:25:40;98299.29;;;-9.58;54.02
43480;BME280;29067;35.492;-97.520;2023-01-30T05:28:08;98313.55;;;-10.46;56.05
43480;BME280;29067;35.492;-97.520;2023-01-30T05:30:36;98312.14;;;-9.27;55.87
43480;BME280;29067;35.492;-97.520;2023-01-30T05:33:10;98312.76;;;-9.26;53.81
43480;BME280;29067;35.492;-97.520;2023-01-30T05:35:45;98310.84;;;-8.99;54.48
43480;BME280;29067;35.492;-97.520;2023-01-30T05:38:14;98313.02;;;-9.42;54.32
43480;BME280;29067;35.492;-97.520;2023-01-30T05:40:42;98307.18;;;-9.88;54.31
43480;BME280;29067;35.492;-97.520;2023-01-30T05:43:10;98309.88;;;-10.39;55.19
43480;BME280;29067;35.492;-97.520;2023-01-30T05:45:39;98306.45;;;-10.19;54.45
43480;BME280;29067;35.492;-97.520;2023-01-30T05:48:08;98307.04;;;-10.49;55.45
43480;BME280;29067;35.492;-97.520;2023-01-30T05:50:35;98303.65;;;-10.43;55.69
43480;BME280;29067;35.492;-97.520;2023-01-30T05:53:05;98305.49;;;-9.35;54.88
43480;BME280;29067;35.492;-97.520;2023-01-30T05:55:39;98302.96;;;-10.95;56.95
43480;BME280;29067;35.492;-97.520;2023-01-30T05:58:08;98302.38;;;-10.24;55.14
43480;BME280;29067;35.492;-97.520;2023-01-30T06:00:36;98306.14;;;-10.26;55.16
43480;BME280;29067;35.492;-97.520;2023-01-30T06:03:05;98315.01;;;-10.04;54.79
43480;BME280;29067;35.492;-97.520;2023-01-30T06:05:32;98321.26;;;-9.65;54.14
43480;BME280;29067;35.492;-97.520;2023-01-30T06:08:09;98320.29;;;-10.11;54.08
43480;BME280;29067;35.492;-97.520;2023-01-30T06:10:48;98318.69;;;-9.43;53.58
43480;BME280;29067;35.492;-97.520;2023-01-30T06:13:16;98317.40;;;-9.73;52.60
43480;BME280;29067;35.492;-97.520;2023-01-30T06:15:44;98319.47;;;-10.25;52.73
43480;BME280;29067;35.492;-97.520;2023-01-30T06:18:13;98320.27;;;-10.51;54.01
43480;BME280;29067;35.492;-97.520;2023-01-30T06:20:45;98316.88;;;-10.05;53.39
43480;BME280;29067;35.492;-97.520;2023-01-30T06:23:15;98312.69;;;-10.38;54.41
43480;BME280;29067;35.492;-97.520;2023-01-30T06:25:43;98310.41;;;-10.12;53.62
43480;BME280;29067;35.492;-97.520;2023-01-30T06:28:12;98314.26;;;-10.24;53.06
43480;BME280;29067;35.492;-97.520;2023-01-30T06:30:40;98306.85;;;-10.50;53.77
43480;BME280;29067;35.492;-97.520;2023-01-30T06:33:10;98306.34;;;-11.04;54.42
43480;BME280;29067;35.492;-97.520;2023-01-30T06:35:39;98305.74;;;-9.91;52.91
43480;BME280;29067;35.492;-97.520;2023-01-30T06:38:08;98307.29;;;-9.73;52.94
43480;BME280;29067;35.492;-97.520;2023-01-30T06:40:42;98305.94;;;-10.14;53.45
43480;BME280;29067;35.492;-97.520;2023-01-30T06:43:12;98306.51;;;-10.27;52.56
43480;BME280;29067;35.492;-97.520;2023-01-30T06:45:40;98311.21;;;-9.80;51.72
43480;BME280;29067;35.492;-97.520;2023-01-30T06:48:09;98315.84;;;-11.45;49.69
43480;BME280;29067;35.492;-97.520;2023-01-30T06:50:44;98321.75;;;-11.45;50.02
43480;BME280;29067;35.492;-97.520;2023-01-30T06:53:13;98325.48;;;-12.02;49.94
43480;BME280;29067;35.492;-97.520;2023-01-30T06:55:46;98325.06;;;-11.70;49.99
43480;BME280;29067;35.492;-97.520;2023-01-30T06:58:15;98328.10;;;-11.82;49.66
43480;BME280;29067;35.492;-97.520;2023-01-30T07:00:43;98330.60;;;-11.79;50.21
43480;BME280;29067;35.492;-97.520;2023-01-30T07:03:14;98333.36;;;-11.91;49.28
43480;BME280;29067;35.492;-97.520;2023-01-30T07:05:44;98333.80;;;-12.23;49.09
43480;BME280;29067;35.492;-97.520;2023-01-30T07:08:13;98335.87;;;-10.99;48.48
43480;BME280;29067;35.492;-97.520;2023-01-30T07:10:43;98343.67;;;-11.19;48.05
43480;BME280;29067;35.492;-97.520;2023-01-30T07:13:11;98334.08;;;-10.85;47.57
43480;BME280;29067;35.492;-97.520;2023-01-30T07:15:39;98335.82;;;-11.29;47.99
43480;BME280;29067;35.492;-97.520;2023-01-30T07:18:13;98337.77;;;-10.93;47.15
43480;BME280;29067;35.492;-97.520;2023-01-30T07:20:46;98331.96;;;-10.46;47.41
43480;BME280;29067;35.492;-97.520;2023-01-30T07:23:20;98340.18;;;-10.82;46.27
43480;BME280;29067;35.492;-97.520;2023-01-30T07:25:48;98353.10;;;-11.63;47.29
43480;BME280;29067;35.492;-97.520;2023-01-30T07:28:16;98358.25;;;-11.00;47.44
43480;BME280;29067;35.492;-97.520;2023-01-30T07:30:45;98364.18;;;-11.66;48.47
43480;BME280;29067;35.492;-97.520;2023-01-30T07:33:13;98358.61;;;-11.95;47.83
43480;BME280;29067;35.492;-97.520;2023-01-30T07:35:42;98350.93;;;-11.97;49.09
43480;BME280;29067;35.492;-97.520;2023-01-30T07:38:10;98343.43;;;-12.08;48.61
43480;BME280;29067;35.492;-97.520;2023-01-30T07:40:38;98348.65;;;-11.42;47.97
43480;BME280;29067;35.492;-97.520;2023-01-30T07:43:10;98361.43;;;-11.46;47.37
43480;BME280;29067;35.492;-97.520;2023-01-30T07:45:45;98365.89;;;-12.84;49.13
43480;BME280;29067;35.492;-97.520;2023-01-30T07:48:16;98368.63;;;-11.90;48.63
43480;BME280;29067;35.492;-97.520;2023-01-30T07:50:45;98378.75;;;-13.30;50.74
43480;BME280;29067;35.492;-97.520;2023-01-30T07:53:20;98381.08;;;-12.82;50.28
43480;BME280;29067;35.492;-97.520;2023-01-30T07:55:48;98384.18;;;-13.43;51.33
43480;BME280;29067;35.492;-97.520;2023-01-30T07:58:17;98378.08;;;-13.00;51.32
43480;BME280;29067;35.492;-97.520;2023-01-30T08:00:45;98386.96;;;-13.49;52.04
43480;BME280;29067;35.492;-97.520;2023-01-30T08:03:15;98372.28;;;-12.00;50.70
43480;BME280;29067;35.492;-97.520;2023-01-30T08:05:46;98369.60;;;-12.30;50.85
43480;BME280;29067;35.492;-97.520;2023-01-30T08:08:14;98360.42;;;-13.03;50.23
43480;BME280;29067;35.492;-97.520;2023-01-30T08:10:47;98369.50;;;-12.84;49.62
43480;BME280;29067;35.492;-97.520;2023-01-30T08:13:16;98368.67;;;-13.84;51.53
43480;BME280;29067;35.492;-97.520;2023-01-30T08:15:44;98370.26;;;-12.62;49.56
43480;BME280;29067;35.492;-97.520;2023-01-30T08:18:13;98380.72;;;-12.55;49.85
43480;BME280;29067;35.492;-97.520;2023-01-30T08:20:40;98377.68;;;-12.69;50.29
43480;BME280;29067;35.492;-97.520;2023-01-30T08:23:09;98382.47;;;-13.77;50.50
43480;BME280;29067;35.492;-97.520;2023-01-30T08:25:38;98385.79;;;-13.05;51.71
43480;BME280;29067;35.492;-97.520;2023-01-30T08:28:07;98381.00;;;-12.96;50.30
43480;BME280;29067;35.492;-97.520;2023-01-30T08:30:40;98367.34;;;-12.67;50.84
43480;BME280;29067;35.492;-97.520;2023-01-30T08:33:14;98363.75;;;-13.04;50.65
43480;BME280;29067;35.492;-97.520;2023-01-30T08:35:48;98366.89;;;-14.00;50.97
43480;BME280;29067;35.492;-97.520;2023-01-30T08:38:17;98361.77;;;-12.52;50.78
43480;BME280;29067;35.492;-97.520;2023-01-30T08:40:45;98367.28;;;-12.90;51.11
43480;BME280;29067;35.492;-97.520;2023-01-30T08:43:14;98375.37;;;-12.99;50.72
43480;BME280;29067;35.492;-97.520;2023-01-30T08:45:47;98368.19;;;-12.39;49.97
43480;BME280;29067;35.492;-97.520;2023-01-30T08:48:17;98368.30;;;-11.97;49.56
43480;BME280;29067;35.492;-97.520;2023-01-30T08:50:44;98375.60;;;-12.80;49.68
43480;BME280;29067;35.492;-97.520;2023-01-30T08:53:13;98382.55;;;-12.02;48.61
43480;BME280;29067;35.492;-97.520;2023-01-30T08:55:44;98382.67;;;-12.66;48.57
43480;BME280;29067;35.492;-97.520;2023-01-30T08:58:17;98398.17;;;-13.07;48.94
43480;BME280;29067;35.492;-97.520;2023-01-30T09:00:50;98389.93;;;-12.52;48.90
43480;BME280;29067;35.492;-97.520;2023-01-30T09:03:20;98383.57;;;-12.45;48.78
43480;BME280;29067;35.492;-97.520;2023-01-30T09:05:59;98387.26;;;-13.69;50.57
43480;BME280;29067;35.492;-97.520;2023-01-30T09:08:27;98391.44;;;-14.12;51.48
43480;BME280;29067;35.492;-97.520;2023-01-30T09:10:58;98401.26;;;-14.02;51.67
43480;BME280;29067;35.492;-97.520;2023-01-30T09:13:27;98393.95;;;-13.24;51.40
43480;BME280;29067;35.492;-97.520;2023-01-30T09:15:55;98403.31;;;-12.70;51.83
43480;BME280;29067;35.492;-97.520;2023-01-30T09:18:24;98412.58;;;-13.28;50.05
43480;BME280;29067;35.492;-97.520;2023-01-30T09:20:52;98413.05;;;-11.50;49.24
43480;BME280;29067;35.492;-97.520;2023-01-30T09:23:40;98425.28;;;-12.43;49.33
43480;BME280;29067;35.492;-97.520;2023-01-30T09:26:09;98415.84;;;-13.30;50.44
43480;BME280;29067;35.492;-97.520;2023-01-30T09:28:37;98425.86;;;-12.83;49.96
43480;BME280;29067;35.492;-97.520;2023-01-30T09:31:05;98420.59;;;-12.94;50.17
43480;BME280;29067;35.492;-97.520;2023-01-30T09:33:34;98435.84;;;-13.07;50.87
43480;BME280;29067;35.492;-97.520;2023-01-30T09:36:08;98430.14;;;-12.23;50.20
43480;BME280;29067;35.492;-97.520;2023-01-30T09:38:42;98439.60;;;-12.53;51.07
43480;BME280;29067;35.492;-97.520;2023-01-30T09:41:41;98428.83;;;-12.53;51.04
43480;BME280;29067;35.492;-97.520;2023-01-30T09:44:28;98431.29;;;-13.43;51.30
43480;BME280;29067;35.492;-97.520;2023-01-30T09:47:08;98426.32;;;-13.29;52.03
43480;BME280;29067;35.492;-97.520;2023-01-30T09:50:03;98413.50;;;-13.05;52.49
43480;BME280;29067;35.492;-97.520;2023-01-30T09:52:50;98413.37;;;-13.85;53.26
43480;BME280;29067;35.492;-97.520;2023-01-30T09:55:23;98412.36;;;-12.62;52.35
43480;BME280;29067;35.492;-97.520;2023-01-30T09:58:12;98419.89;;;-13.30;52.74
43480;BME280;29067;35.492;-97.520;2023-01-30T10:00:45;98435.37;;;-13.39;51.50
43480;BME280;29067;35.492;-97.520;2023-01-30T10:03:17;98429.30;;;-12.80;51.42
43480;BME280;29067;35.492;-97.520;2023-01-30T10:05:50;98420.81;;;-13.46;51.18
43480;BME280;29067;35.492;-97.520;2023-01-30T10:08:36;98423.51;;;-12.66;50.76
43480;BME280;29067;35.492;-97.520;2023-01-30T10:11:16;98421.99;;;-13.09;50.57
43480;BME280;29067;35.492;-97.520;2023-01-30T10:14:01;98420.19;;;-13.03;50.68
43480;BME280;29067;35.492;-97.520;2023-01-30T10:16:36;98420.30;;;-13.77;51.90
43480;BME280;29067;35.492;-97.520;2023-01-30T10:19:25;98431.06;;;-14.52;52.75
43480;BME280;29067;35.492;-97.520;2023-01-30T10:22:04;98429.63;;;-13.94;52.73
43480;BME280;29067;35.492;-97.520;2023-01-30T10:24:45;98421.80;;;-12.39;51.29
43480;BME280;29067;35.492;-97.520;2023-01-30T10:27:23;98431.90;;;-12.06;49.66
43480;BME280;29067;35.492;-97.520;2023-01-30T10:29:54;98436.27;;;-12.58;50.75
43480;BME280;29067;35.492;-97.520;2023-01-30T10:32:28;98451.09;;;-13.26;51.71
43480;BME280;29067;35.492;-97.520;2023-01-30T10:35:04;98455.10;;;-13.14;50.03
43480;BME280;29067;35.492;-97.520;2023-01-30T10:37:37;98460.21;;;-12.75;49.86
43480;BME280;29067;35.492;-97.520;2023-01-30T10:40:17;98467.79;;;-13.35;50.10
43480;BME280;29067;35.492;-97.520;2023-01-30T10:42:51;98460.25;;;-13.35;50.20
43480;BME280;29067;35.492;-97.520;2023-01-30T10:45:35;98456.92;;;-13.59;50.36
43480;BME280;29067;35.492;-97.520;2023-01-30T10:48:25;98462.36;;;-13.51;50.23
43480;BME280;29067;35.492;-97.520;2023-01-30T10:51:01;98463.29;;;-12.70;49.52
43480;BME280;29067;35.492;-97.520;2023-01-30T10:53:36;98461.45;;;-13.03;50.04
43480;BME280;29067;35.492;-97.520;2023-01-30T10:56:13;98461.16;;;-12.95;49.49
43480;BME280;29067;35.492;-97.520;2023-01-30T10:58:50;98460.29;;;-13.03;49.45
43480;BME280;29067;35.492;-97.520;2023-01-30T11:01:24;98454.38;;;-12.66;50.47
43480;BME280;29067;35.492;-97.520;2023-01-30T11:04:02;98456.79;;;-12.99;49.83
43480;BME280;29067;35.492;-97.520;2023-01-30T11:06:31;98472.75;;;-12.20;48.65
43480;BME280;29067;35.492;-97.520;2023-01-30T11:09:00;98469.77;;;-11.45;47.97
43480;BME280;29067;35.492;-97.520;2023-01-30T11:11:30;98450.24;;;-12.11;48.51
43480;BME280;29067;35.492;-97.520;2023-01-30T11:14:03;98441.80;;;-12.17;48.37
43480;BME280;29067;35.492;-97.520;2023-01-30T11:16:40;98451.71;;;-12.53;48.96
43480;BME280;29067;35.492;-97.520;2023-01-30T11:19:11;98466.23;;;-13.57;50.25
43480;BME280;29067;35.492;-97.520;2023-01-30T11:21:40;98466.77;;;-13.21;49.50
43480;BME280;29067;35.492;-97.520;2023-01-30T11:24:14;98470.46;;;-12.47;48.27
43480;BME280;29067;35.492;-97.520;2023-01-30T11:26:43;98474.20;;;-13.19;48.97
43480;BME280;29067;35.492;-97.520;2023-01-30T11:29:29;98484.04;;;-13.10;49.52
43480;BME280;29067;35.492;-97.520;2023-01-30T11:32:11;98479.20;;;-13.54;51.58
43480;BME280;29067;35.492;-97.520;2023-01-30T11:35:00;98483.74;;;-14.02;51.37
43480;BME280;29067;35.492;-97.520;2023-01-30T11:37:36;98474.22;;;-12.65;49.86
43480;BME280;29067;35.492;-97.520;2023-01-30T11:40:26;98477.75;;;-14.18;51.29
43480;BME280;29067;35.492;-97.520;2023-01-30T11:43:03;98476.34;;;-13.34;50.79
43480;BME280;29067;35.492;-97.520;2023-01-30T11:45:36;98485.69;;;-13.63;51.02
43480;BME280;29067;35.492;-97.520;2023-01-30T11:48:17;98498.54;;;-13.22;51.97
43480;BME280;29067;35.492;-97.520;2023-01-30T11:50:48;98504.57;;;-14.17;51.13
43480;BME280;29067;35.492;-97.520;2023-01-30T11:53:35;98502.92;;;-13.45;50.75
43480;BME280;29067;35.492;-97.520;2023-01-30T11:56:13;98510.79;;;-12.80;50.16
43480;BME280;29067;35.492;-97.520;2023-01-30T11:58:43;98509.38;;;-13.64;50.93
43480;BME280;29067;35.492;-97.520;2023-01-30T12:03:10;98499.78;;;-13.30;50.44
43480;BME280;29067;35.492;-97.520;2023-01-30T12:05:40;98485.60;;;-13.12;50.50
43480;BME280;29067;35.492;-97.520;2023-01-30T12:08:26;98502.60;;;-14.12;50.87
43480;BME280;29067;35.492;-97.520;2023-01-30T12:10:59;98491.31;;;-13.45;50.54
43480;BME280;29067;35.492;-97.520;2023-01-30T12:13:35;98492.90;;;-14.14;50.82
43480;BME280;29067;35.492;-97.520;2023-01-30T12:16:16;98510.21;;;-13.85;51.50
43480;BME280;29067;35.492;-97.520;2023-01-30T12:18:53;98520.35;;;-13.30;49.88
43480;BME280;29067;35.492;-97.520;2023-01-30T12:21:34;98517.99;;;-13.08;50.88
43480;BME280;29067;35.492;-97.520;2023-01-30T12:24:15;98516.37;;;-13.77;51.35
43480;BME280;29067;35.492;-97.520;2023-01-30T12:26:50;98503.82;;;-12.44;51.24
43480;BME280;29067;35.492;-97.520;2023-01-30T12:29:26;98509.93;;;-13.54;51.33
43480;BME280;29067;35.492;-97.520;2023-01-30T12:32:04;98495.12;;;-10.98;48.85
43480;BME280;29067;35.492;-97.520;2023-01-30T12:34:32;98510.41;;;-12.46;49.05
43480;BME280;29067;35.492;-97.520;2023-01-30T12:37:11;98514.57;;;-11.57;48.54
43480;BME280;29067;35.492;-97.520;2023-01-30T12:39:54;98513.58;;;-12.22;48.10
43480;BME280;29067;35.492;-97.520;2023-01-30T12:42:50;98504.14;;;-11.90;48.18
43480;BME280;29067;35.492;-97.520;2023-01-30T12:45:23;98505.59;;;-13.74;50.13
43480;BME280;29067;35.492;-97.520;2023-01-30T12:48:06;98508.95;;;-13.00;48.94
43480;BME280;29067;35.492;-97.520;2023-01-30T12:50:51;98496.17;;;-12.06;49.72
43480;BME280;29067;35.492;-97.520;2023-01-30T12:53:34;98502.53;;;-12.49;48.32
43480;BME280;29067;35.492;-97.520;2023-01-30T12:56:23;98510.28;;;-12.55;49.64
43480;BME280;29067;35.492;-97.520;2023-01-30T12:58:58;98519.37;;;-13.16;50.41
43480;BME280;29067;35.492;-97.520;2023-01-30T13:01:37;98517.59;;;-13.40;50.53